Tiempo atmosférico en la estación meteorológica de Arroyo Del Ojanco, Jaén (580 m.)

Fecha
DESCASC
Temp. máxima en grados centígrados (hora)
DESCASC
Temp. mínima en grados centígrados (hora)
DESCASC
Temp. media en grados centígrados
DESCASC
Racha de viento máxima en m/sg (hora)
DESCASC
Velocidad máxima media en intervalos de 10 minutos(hora)
DESCASC
Precipitaciones diarias en mm
DESCASC
Precipitaciones de 00:00 a 06:00 en mm
DESCASC
Precipitaciones de 06:00 a 12:00 en mm
DESCASC
Precipitaciones de 12:00 a 18:00 en mm
DESCASC
Precipitaciones de 18:00 a 24:00 en mm
DESCASC
23-11-2017 21.6 (16:00) 3.6 (04:40) 12.6 4.17 (18:50) 3.06 (18:50) 0 0 0 0 0
22-11-2017 21 (15:40) 2.5 (08:20) 11.8 4.17 (16:10) 2.78 (16:20) 0 0 0 0 0
21-11-2017 22.8 (16:30) 3.4 (08:10) 13.1 4.44 (22:20) 2.5 (22:20) 0 0 0 0 0
20-11-2017 23 (15:40) 3.8 (06:50) 13.4 3.89 (14:50) 2.22 (18:10) 0 0 0 0 0
19-11-2017 22.5 (16:10) 3.7 (00:00) 13.1 7.22 (06:00) 2.5 (06:00) 0 0 0 0 0
18-11-2017 22.2 (15:50) 3.7 (00:00) 13 4.72 (07:00) 2.78 (07:00) 0 0 0 0 0
17-11-2017 21.9 (16:20) 2.6 (00:00) 12.2 3.89 (03:00) 2.78 (19:30) 0 0 0 0 0
16-11-2017 21.6 (16:10) 2 (00:00) 11.8 4.44 (23:00) 2.5 (02:40) 0 0 0 0 0
15-11-2017 19 (16:30) 0.3 (00:00) 9.7 3.06 (12:50) 1.94 (18:10) 0 0 0 0 0
14-11-2017 16.6 (17:20) 0.5 (00:00) 8.6 5.83 (00:10) 3.61 (11:00) 0 0 0 0 0
13-11-2017 16.8 (15:20) 3 (00:00) 9.9 10 (13:20) 5 (13:20) 0 0 0 0 0
12-11-2017 20.9 (15:20) 3.9 (00:00) 12.4 5 (13:50) 2.78 (20:30) 0 0 0 0 0
11-11-2017 19.5 (17:00) 3.4 (00:00) 11.5 3.89 (07:20) 2.22 (18:10) 0 0 0 0 0
10-11-2017 15.9 (16:40) 1.7 (00:00) 8.8 9.17 (16:00) 5 (16:00) 0 0 0 0 0
09-11-2017 -- (--) -- (--) -- -- (--) -- (--) -- -- -- -- --
08-11-2017 -- (--) -- (--) -- -- (--) -- (--) -- -- -- -- --
07-11-2017 -- (--) -- (--) -- -- (--) -- (--) -- -- -- -- --
06-11-2017 -- (--) -- (--) -- -- (--) -- (--) -- -- -- -- --
05-11-2017 -- (--) -- (--) -- -- (--) -- (--) -- -- -- -- --
04-11-2017 -- (--) -- (--) -- -- (--) -- (--) -- -- -- -- --
03-11-2017 -- (--) -- (--) -- -- (--) -- (--) -- -- -- -- --
02-11-2017 -- (--) -- (--) -- -- (--) -- (--) -- -- -- -- --
01-11-2017 -- (--) -- (--) -- -- (--) -- (--) -- -- -- -- --
31-10-2017 -- (--) -- (--) -- -- (--) -- (--) -- -- -- -- --
30-10-2017 -- (--) -- (--) -- -- (--) -- (--) -- -- -- -- --
29-10-2017 -- (--) -- (--) -- -- (--) -- (--) -- -- -- -- --
28-10-2017 -- (--) -- (--) -- -- (--) -- (--) -- -- -- -- --
27-10-2017 -- (--) -- (--) -- -- (--) -- (--) -- -- -- -- --
26-10-2017 -- (--) -- (--) -- -- (--) -- (--) -- -- -- -- --
25-10-2017 -- (--) -- (--) -- -- (--) -- (--) -- -- -- -- --

Gráficas

Temp. máximas Temp. mínimas Temp. medias Precipitaciones Rachas de viento máximas Velocidades máximas media en intervalos de 10 minutos

Datos horarios

Fecha y hora oficial Temperatura (ºC) Velocidad del viento (km/h) Dirección del viento Racha (km/h) Dirección de racha Precipitación (mm) Presión (hPa) Tendencia (hPa) Humedad (%)
2017-11-23 23:00:00 11.3 3 Sudoeste 5 Sur 0 947.1 0.3 60
2017-11-23 22:00:00 11.3 2 Nordeste 5 Norte 0 946.8 0.2 58
2017-11-23 21:00:00 12.9 0 Calma 4 Noroeste 0 946.5 -0.1 53
2017-11-23 20:00:00 13.8 0 Calma 6 Norte 0 946.8 0.4 49
2017-11-23 19:00:00 16.9 8 Sudeste 15 Sudeste 0 946.6 0.1 44
2017-11-23 18:00:00 17.6 10 Sudeste 13 Sudeste 0 946.6 0.1 41
2017-11-23 17:00:00 20.4 6 Sur 14 Sudoeste 0 946.4 -0.2 39
2017-11-23 16:00:00 21.6 2 Oeste 10 Sudoeste 0 946.5 0 38
2017-11-23 15:00:00 20.8 6 Noroeste 13 Sudoeste 0 946.5 0.5 38
2017-11-23 14:00:00 19.7 4 Oeste 10 Oeste 0 946.6 1.1 40
2017-11-23 13:00:00 17.8 0 Calma 6 Norte 0 946.5 1.9 43
2017-11-23 12:00:00 14.6 0 Calma 8 Noroeste 0 946 2.8 52
2017-11-23 11:00:00 10.8 3 Norte 7 Norte 0 945.5 2.8 65
2017-11-23 10:00:00 7 0 Calma 9 Nordeste 0 944.6 2.6 74
2017-11-23 09:00:00 6.1 0 Calma 7 Sur 0 943.2 1.3 73
2017-11-23 08:00:00 5.4 0 Calma 10 Este 0 942.7 1.6 73
2017-11-23 07:00:00 4 2 Sur 9 Sur 0 942 0.8 78
2017-11-23 06:00:00 4.5 4 Nordeste 9 Nordeste 0 941.9 0.5 75
2017-11-23 05:00:00 6 0 Calma 12 Nordeste 0 941.1 -0.3 73
2017-11-23 04:00:00 4.7 4 Nordeste 10 Nordeste 0 941.2 -0.4 72
2017-11-23 03:00:00 5.7 0 Calma 8 Nordeste 0 941.4 0 73
2017-11-23 02:00:00 5.9 0 Calma 8 Nordeste 0 941.4 -0.3 70
2017-11-23 01:00:00 7 0 Calma 0 Calma 0 941.6 -0.2 68
2017-11-23 00:00:00 6.9 0 Calma -- -- 0 941.4 -0.1 65
2017-11-22 23:00:00 8.3 0 Calma 5 Sur 0 941.7 0 61
2017-11-22 22:00:00 9.2 0 Calma -- -- 0 941.8 0.4 57
2017-11-22 21:00:00 10.3 0 Calma 6 Sur 0 941.5 0.1 52
2017-11-22 20:00:00 11.6 0 Calma 13 Sudeste 0 941.7 -0.2 48
2017-11-22 19:00:00 15.6 9 Sur 14 Sur 0 941.4 -0.6 41
2017-11-22 18:00:00 16.7 8 Sur 13 Sur 0 941.4 -0.9 39
2017-11-22 17:00:00 19.6 9 Sudoeste 15 Oeste 0 941.9 -0.7 37
2017-11-22 16:00:00 20.6 8 Sudoeste 15 Sudoeste 0 942 -0.9 36
2017-11-22 15:00:00 20.2 9 Oeste 14 Sudoeste 0 942.3 -0.7 38
2017-11-22 14:00:00 19.5 5 Oeste 11 Oeste 0 942.6 0.1 40
2017-11-22 13:00:00 17.8 0 Calma 8 Oeste 0 942.9 1.3 45
2017-11-22 12:00:00 15.1 2 Oeste 9 Noroeste 0 943 2.1 51
2017-11-22 11:00:00 11.4 5 Norte 11 Nordeste 0 942.5 1.8 57
2017-11-22 10:00:00 8.1 6 Nordeste 13 Nordeste 0 941.6 0.9 68
2017-11-22 09:00:00 4.6 3 Este 9 Este 0 940.9 -0.1 81
2017-11-22 08:00:00 3.3 4 Norte 8 Norte 0 940.7 -0.6 79
2017-11-22 07:00:00 3.9 0 Calma 12 Nordeste 0 940.7 -1.7 79
2017-11-22 06:00:00 4.8 0 Calma 10 Nordeste 0 941 -1.6 75
2017-11-22 05:00:00 4.4 0 Calma 12 Nordeste 0 941.3 -1.9 73
2017-11-22 04:00:00 5.2 0 Calma 8 Norte 0 942.4 -1.5 70
2017-11-22 03:00:00 6.1 0 Calma 6 Nordeste 0 942.6 -1.6 67
2017-11-22 02:00:00 6.3 0 Calma 4 Nordeste 0 943.2 -1.4 64
2017-11-22 01:00:00 7.9 0 Calma 3 Norte 0 943.9 -1.1 60
2017-11-22 00:00:00 9.1 6 Nordeste 10 Nordeste 0 944.2 -1 56
2017-11-21 23:00:00 9.1 0 Calma 16 Nordeste 0 944.6 -0.8 53
2017-11-21 22:00:00 10.3 3 Nordeste 6 Nordeste 0 945 -0.6 50
2017-11-21 21:00:00 11.4 5 Nordeste 7 Nordeste 0 945.2 -0.7 47
2017-11-21 20:00:00 12.8 0 Calma -- -- 0 945.4 -1.2 43
2017-11-21 19:00:00 14.6 0 Calma 8 Sudeste 0 945.6 -1 39
2017-11-21 18:00:00 17.1 7 Sudeste 9 Sudeste 0 945.9 -0.9 35
2017-11-21 17:00:00 22.5 3 Sudoeste 11 Oeste 0 946.6 -0.7 31
2017-11-21 16:00:00 22.5 3 Oeste 9 Oeste 0 946.6 -1.1 32
2017-11-21 15:00:00 21 3 Nordeste 9 Noroeste 0 946.8 -1.4 35
2017-11-21 14:00:00 21 4 Noroeste 9 Oeste 0 947.3 -0.6 38
2017-11-21 13:00:00 18.9 0 Calma 8 Sudoeste 0 947.7 0.8 42
2017-11-21 12:00:00 15.9 3 Norte 7 Norte 0 948.2 1.8 49
2017-11-21 11:00:00 12.4 3 Nordeste 7 Norte 0 947.9 2 56
2017-11-21 10:00:00 8.3 0 Calma 6 Nordeste 0 946.9 0.7 70
2017-11-21 09:00:00 4.9 0 Calma 10 Nordeste 0 946.4 0.5 82
2017-11-21 08:00:00 3.5 0 Calma -- -- 0 945.9 -0.1 81
2017-11-21 07:00:00 4 0 Calma 6 Nordeste 0 946.2 -0.2 79
2017-11-21 06:00:00 4.8 0 Calma 9 Nordeste 0 945.9 -0.8 74
2017-11-21 05:00:00 5 0 Calma 6 Nordeste 0 946 -0.8 73
2017-11-21 04:00:00 5.8 4 Nordeste 10 Nordeste 0 946.4 -0.9 70
2017-11-21 03:00:00 6.3 0 Calma -- -- 0 946.7 -0.9 68
2017-11-21 02:00:00 7.3 0 Calma 5 Nordeste 0 946.8 -1 64
2017-11-21 01:00:00 7.9 0 Calma 12 Nordeste 0 947.3 -0.7 62
2017-11-21 00:00:00 8.8 6 Nordeste 13 Nordeste 0 947.6 -0.5 60
2017-11-20 23:00:00 9.7 0 Calma 5 Norte 0 947.8 -0.4 55
2017-11-20 22:00:00 11 0 Calma -- -- 0 948 0.2 50
2017-11-20 21:00:00 12.4 0 Calma 7 Este 0 948.1 -0.1 46
2017-11-20 20:00:00 13.9 0 Calma 4 Sudeste 0 948.2 -0.3 43
2017-11-20 19:00:00 14.8 0 Calma 12 Sudeste 0 947.8 -0.8 40
2017-11-20 18:00:00 18.5 7 Sudeste 11 Sudeste 0 948.2 -0.4 35
2017-11-20 17:00:00 22.1 6 Sudoeste 12 Sudoeste 0 948.5 -0.7 31
2017-11-20 16:00:00 22.7 5 Sudoeste 13 Sudoeste 0 948.6 -0.9 32
2017-11-20 15:00:00 22.3 4 Sudoeste 14 Sudoeste 0 948.6 -0.8 32
2017-11-20 14:00:00 21.4 2 Oeste 10 Sudoeste 0 949.2 0.3 37
2017-11-20 13:00:00 18.9 0 Calma 8 Norte 0 949.5 2 43
2017-11-20 12:00:00 15.8 4 Norte 9 Norte 0 949.4 2.5 49
2017-11-20 11:00:00 12.5 6 Nordeste 10 Nordeste 0 948.9 2.4 57
2017-11-20 10:00:00 9.1 3 Nordeste 13 Nordeste 0 947.5 1.1 69
2017-11-20 09:00:00 5.4 2 Este 7 Nordeste 0 946.9 1 84
2017-11-20 08:00:00 4.1 0 Calma 9 Nordeste 0 946.5 0.8 85
2017-11-20 07:00:00 4.3 6 Nordeste 10 Nordeste 0 946.4 0.4 83
2017-11-20 06:00:00 4.4 0 Calma -- -- 0 945.9 -0.3 80
2017-11-20 05:00:00 5.3 0 Calma 0 Calma 0 945.7 -0.9 76
2017-11-20 04:00:00 5.6 0 Calma -- -- 0 946 -1.1 73
2017-11-20 03:00:00 6.6 0 Calma 8 Nordeste 0 946.2 -1.2 70
2017-11-20 02:00:00 6.5 0 Calma -- -- 0 946.6 -0.7 68
2017-11-20 01:00:00 7.8 0 Calma 6 Este 0 947.1 -0.3 63
2017-11-20 00:00:00 8.9 0 Calma 6 Nordeste 0 947.4 0.2 59
2017-11-19 23:00:00 9.7 0 Calma 7 Norte 0 947.3 0.3 55
2017-11-19 22:00:00 10.9 2 Norte 12 Nordeste 0 947.4 0.8 50
2017-11-19 21:00:00 12 0 Calma 8 Este 0 947.2 0.6 49
2017-11-19 20:00:00 13.3 0 Calma 10 Sur 0 947 0.5 46
2017-11-19 19:00:00 15 5 Sudeste 8 Sudeste 0 946.6 0.3 42
2017-11-19 18:00:00 17.6 6 Sur 8 Sur 0 946.6 0.2 38
2017-11-19 17:00:00 21.8 4 Sudoeste 9 Oeste 0 946.5 -0.2 34
2017-11-19 16:00:00 22.4 3 Sudoeste 10 Sudoeste 0 946.3 -0.8 34
2017-11-19 15:00:00 21.7 3 Sudoeste 9 Oeste 0 946.4 -0.7 37
2017-11-19 14:00:00 19.8 4 Sudoeste 9 Sudoeste 0 946.7 0.4 40
2017-11-19 13:00:00 18.3 4 Sudoeste 10 Sudoeste 0 947.1 1.5 45
2017-11-19 12:00:00 15 0 Calma 6 Sudoeste 0 947.1 2.5 52
2017-11-19 11:00:00 12.3 0 Calma 6 Nordeste 0 946.3 2.5 61
2017-11-19 10:00:00 8.5 0 Calma 4 Norte 0 945.6 2.1 75
2017-11-19 09:00:00 5.4 2 Nordeste 9 Nordeste 0 944.6 1.3 84
2017-11-19 08:00:00 4.3 0 Calma 9 Nordeste 0 943.8 0.7 85
2017-11-19 07:00:00 5 0 Calma 12 Nordeste 0 943.5 0.1 82
2017-11-19 06:00:00 5.4 9 Nordeste 26 Nordeste 0 943.3 -0.5 81
2017-11-19 05:00:00 5.2 0 Calma 8 Nordeste 0 943.1 -0.7 80
2017-11-19 04:00:00 6.1 7 Nordeste 11 Nordeste 0 943.4 -0.9 76
2017-11-19 03:00:00 6.4 0 Calma 6 Nordeste 0 943.8 -0.5 72
2017-11-19 02:00:00 7.1 0 Calma 5 Nordeste 0 943.8 -0.9 70
2017-11-19 01:00:00 7.9 0 Calma 8 Nordeste 0 944.3 -0.6 66
2017-11-19 00:00:00 8.7 0 Calma -- -- 0 944.3 -0.2 62
2017-11-18 23:00:00 9.6 0 Calma -- -- 0 944.7 0.2 58
2017-11-18 22:00:00 10.8 0 Calma -- -- 0 944.9 0.4 55
2017-11-18 21:00:00 12 0 Calma 7 Nordeste 0 944.5 -0.2 52
2017-11-18 20:00:00 13.8 4 Sur 12 Sur 0 944.5 -0.1 45
2017-11-18 19:00:00 16.6 6 Sur 14 Sur 0 944.5 0.1 41
2017-11-18 18:00:00 18.4 8 Sur 13 Sudoeste 0 944.7 0.3 37
2017-11-18 17:00:00 20.7 9 Sudoeste 15 Sudoeste 0 944.6 -0.3 35
2017-11-18 16:00:00 21.7 6 Oeste 11 Sudoeste 0 944.4 -0.5 35
2017-11-18 15:00:00 21.3 5 Oeste 9 Oeste 0 944.4 -1 35
2017-11-18 14:00:00 20.7 3 Noroeste 8 Norte 0 944.9 -0.2 37
2017-11-18 13:00:00 18.4 4 Norte 9 Norte 0 944.9 1 41
2017-11-18 12:00:00 15.2 6 Norte 9 Norte 0 945.4 2.4 49
2017-11-18 11:00:00 12.6 0 Calma 9 Nordeste 0 945.1 2.1 58
2017-11-18 10:00:00 8.1 2 Nordeste 9 Norte 0 943.9 1.4 71
2017-11-18 09:00:00 5.2 0 Calma 10 Nordeste 0 943 0.8 85
2017-11-18 08:00:00 4.2 0 Calma 13 Nordeste 0 943 0.6 81
2017-11-18 07:00:00 5.7 10 Nordeste 17 Nordeste 0 942.5 -0.5 78
2017-11-18 06:00:00 4.2 0 Calma 8 Nordeste 0 942.2 -1.3 83
2017-11-18 05:00:00 5.4 0 Calma -- -- 0 942.4 -1.3 79
2017-11-18 04:00:00 5.2 0 Calma 9 Nordeste 0 943 -1.1 77
2017-11-18 03:00:00 6.6 0 Calma 7 Nordeste 0 943.5 -0.9 71
2017-11-18 02:00:00 7.3 0 Calma 8 Nordeste 0 943.7 -1.1 68
2017-11-18 01:00:00 7.3 0 Calma -- -- 0 944.1 -0.4 68
2017-11-18 00:00:00 8.2 0 Calma 6 Nordeste 0 944.4 0.1 64
2017-11-17 23:00:00 9.8 0 Calma -- -- 0 944.8 0.3 59
2017-11-17 22:00:00 10.1 0 Calma -- -- 0 944.5 -0.1 58
2017-11-17 21:00:00 11.5 0 Calma -- -- 0 944.3 -0.4 52
2017-11-17 20:00:00 13.5 0 Calma 12 Sudeste 0 944.5 -0.1 45
2017-11-17 19:00:00 14.6 0 Calma 10 Sudeste 0 944.6 -0.2 42
2017-11-17 18:00:00 17.4 8 Sudeste 9 Sur 0 944.7 -0.2 37
2017-11-17 17:00:00 21.4 0 Calma 8 Sudoeste 0 944.6 -0.8 33
2017-11-17 16:00:00 21.5 0 Calma 7 Noroeste 0 944.8 -1 33
2017-11-17 15:00:00 20.9 4 Noroeste 9 Noroeste 0 944.9 -1.1 33
2017-11-17 14:00:00 19.9 3 Oeste 8 Oeste 0 945.4 -0.3 36
2017-11-17 13:00:00 17.9 0 Calma 5 Sur 0 945.8 1.2 40
2017-11-17 12:00:00 14.2 0 Calma 9 Norte 0 946 2.2 48
2017-11-17 11:00:00 11.6 4 Nordeste 10 Este 0 945.7 2.4 55
2017-11-17 10:00:00 8.7 0 Calma 7 Nordeste 0 944.6 1.6 69
2017-11-17 09:00:00 4.9 2 Nordeste 9 Nordeste 0 943.8 0.7 81
2017-11-17 08:00:00 2.9 0 Calma 11 Nordeste 0 943.3 0 84
2017-11-17 07:00:00 3.4 4 Nordeste 8 Nordeste 0 943 -0.7 79
2017-11-17 06:00:00 3.7 0 Calma 3 Nordeste 0 943.1 -0.8 79
2017-11-17 05:00:00 4.2 0 Calma 6 Norte 0 943.3 -0.9 75
2017-11-17 04:00:00 5.1 3 Nordeste 10 Nordeste 0 943.7 -0.9 70
2017-11-17 03:00:00 6.6 8 Nordeste 14 Nordeste 0 943.9 -1.2 66
2017-11-17 02:00:00 6.8 0 Calma 11 Nordeste 0 944.2 -1 62
2017-11-17 01:00:00 6.9 0 Calma 8 Nordeste 0 944.6 -0.5 60
2017-11-17 00:00:00 7.9 2 Norte 14 Este 0 945.1 0.3 55
2017-11-16 23:00:00 9 6 Nordeste 16 Nordeste 0 945.2 0.3 54
2017-11-16 22:00:00 9.8 0 Calma -- -- 0 945.1 0.3 50
2017-11-16 21:00:00 11.3 0 Calma -- -- 0 944.8 0 49
2017-11-16 20:00:00 11.7 0 Calma 3 Sudeste 0 944.9 0 46
2017-11-16 19:00:00 13.4 0 Calma 9 Sudeste 0 944.8 -0.1 41
2017-11-16 18:00:00 16.1 8 Sudeste 9 Sudeste 0 944.8 0 35
2017-11-16 17:00:00 21.4 0 Calma 5 Noroeste 0 944.9 -0.4 31
2017-11-16 16:00:00 21.1 4 Oeste 8 Oeste 0 944.9 -0.4 31
2017-11-16 15:00:00 19.4 3 Este 9 Norte 0 944.8 -0.8 32
2017-11-16 14:00:00 19.3 2 Oeste 8 Oeste 0 945.3 0.2 33
2017-11-16 13:00:00 17.4 3 Noroeste 8 Oeste 0 945.3 1.3 38
2017-11-16 12:00:00 14.3 2 Oeste 8 Norte 0 945.6 2.6 47
2017-11-16 11:00:00 11.1 4 Nordeste 9 Nordeste 0 945.1 2.6 54
2017-11-16 10:00:00 7.1 0 Calma 0 Calma 0 944 2.2 70
2017-11-16 09:00:00 3.9 0 Calma 4 Nordeste 0 943 1 81
2017-11-16 08:00:00 2.8 0 Calma 0 Calma 0 942.5 0.7 83
2017-11-16 07:00:00 2.2 0 Calma 7 Nordeste 0 941.8 -0.2 85
2017-11-16 06:00:00 2.8 0 Calma 12 Nordeste 0 942 -0.5 81
2017-11-16 05:00:00 3.8 4 Nordeste 10 Nordeste 0 941.8 -0.7 78
2017-11-16 04:00:00 3.3 0 Calma 8 Nordeste 0 942 -0.9 79
2017-11-16 03:00:00 4.4 0 Calma 12 Nordeste 0 942.5 -0.6 73
2017-11-16 02:00:00 4.9 3 Nordeste 11 Nordeste 0 942.5 -1.2 72
2017-11-16 01:00:00 5.5 0 Calma 8 Nordeste 0 942.9 -0.7 70
2017-11-16 00:00:00 6.1 0 Calma -- -- 0 943.1 -0.6 67
2017-11-15 23:00:00 7.1 0 Calma -- -- 0 943.7 -0.2 62
2017-11-15 22:00:00 8.1 0 Calma -- -- 0 943.6 -0.3 57
2017-11-15 21:00:00 9.2 0 Calma -- -- 0 943.7 -0.6 53
2017-11-15 20:00:00 10.8 0 Calma -- -- 0 943.9 -0.5 47
2017-11-15 19:00:00 11.8 0 Calma 9 Sudeste 0 943.9 -0.5 43
2017-11-15 18:00:00 -- -- -- -- -- -- -- -- --
2017-11-15 17:00:00 -- -- -- -- -- -- -- -- --
2017-11-15 16:00:00 -- -- -- -- -- -- -- -- --
2017-11-15 15:00:00 -- -- -- -- -- -- -- -- --
2017-11-15 14:00:00 -- -- -- -- -- -- -- -- --
2017-11-15 13:00:00 -- -- -- -- -- -- -- -- --
2017-11-15 12:00:00 -- -- -- -- -- -- -- -- --
2017-11-15 11:00:00 -- -- -- -- -- -- -- -- --
2017-11-15 10:00:00 -- -- -- -- -- -- -- -- --
2017-11-15 09:00:00 -- -- -- -- -- -- -- -- --
2017-11-15 08:00:00 -- -- -- -- -- -- -- -- --
2017-11-15 07:00:00 -- -- -- -- -- -- -- -- --
2017-11-15 06:00:00 -- -- -- -- -- -- -- -- --
2017-11-15 05:00:00 -- -- -- -- -- -- -- -- --
2017-11-15 04:00:00 -- -- -- -- -- -- -- -- --
2017-11-15 03:00:00 -- -- -- -- -- -- -- -- --
2017-11-15 02:00:00 -- -- -- -- -- -- -- -- --
2017-11-15 01:00:00 -- -- -- -- -- -- -- -- --
2017-11-15 00:00:00 -- -- -- -- -- -- -- -- --
2017-11-14 23:00:00 -- -- -- -- -- -- -- -- --
2017-11-14 22:00:00 -- -- -- -- -- -- -- -- --
2017-11-14 21:00:00 -- -- -- -- -- -- -- -- --
2017-11-14 20:00:00 -- -- -- -- -- -- -- -- --
2017-11-14 19:00:00 -- -- -- -- -- -- -- -- --
2017-11-14 18:00:00 -- -- -- -- -- -- -- -- --
2017-11-14 17:00:00 -- -- -- -- -- -- -- -- --
2017-11-14 16:00:00 -- -- -- -- -- -- -- -- --
2017-11-14 15:00:00 -- -- -- -- -- -- -- -- --
2017-11-14 14:00:00 -- -- -- -- -- -- -- -- --
2017-11-14 13:00:00 -- -- -- -- -- -- -- -- --
2017-11-14 12:00:00 -- -- -- -- -- -- -- -- --
2017-11-14 11:00:00 -- -- -- -- -- -- -- -- --
2017-11-14 10:00:00 -- -- -- -- -- -- -- -- --
2017-11-14 09:00:00 -- -- -- -- -- -- -- -- --
2017-11-14 08:00:00 -- -- -- -- -- -- -- -- --
2017-11-14 07:00:00 -- -- -- -- -- -- -- -- --
2017-11-14 06:00:00 -- -- -- -- -- -- -- -- --
2017-11-14 05:00:00 -- -- -- -- -- -- -- -- --
2017-11-14 04:00:00 -- -- -- -- -- -- -- -- --
2017-11-14 03:00:00 -- -- -- -- -- -- -- -- --
2017-11-14 02:00:00 -- -- -- -- -- -- -- -- --
2017-11-14 01:00:00 -- -- -- -- -- -- -- -- --
2017-11-14 00:00:00 -- -- -- -- -- -- -- -- --
2017-11-13 23:00:00 -- -- -- -- -- -- -- -- --
2017-11-13 22:00:00 -- -- -- -- -- -- -- -- --
2017-11-13 21:00:00 -- -- -- -- -- -- -- -- --
2017-11-13 20:00:00 -- -- -- -- -- -- -- -- --
2017-11-13 19:00:00 -- -- -- -- -- -- -- -- --
2017-11-13 18:00:00 -- -- -- -- -- -- -- -- --
2017-11-13 17:00:00 -- -- -- -- -- -- -- -- --
2017-11-13 16:00:00 -- -- -- -- -- -- -- -- --
2017-11-13 15:00:00 -- -- -- -- -- -- -- -- --
2017-11-13 14:00:00 -- -- -- -- -- -- -- -- --
2017-11-13 13:00:00 -- -- -- -- -- -- -- -- --
2017-11-13 12:00:00 -- -- -- -- -- -- -- -- --
2017-11-13 11:00:00 -- -- -- -- -- -- -- -- --
2017-11-13 10:00:00 -- -- -- -- -- -- -- -- --
2017-11-13 09:00:00 -- -- -- -- -- -- -- -- --
2017-11-13 08:00:00 -- -- -- -- -- -- -- -- --
2017-11-13 07:00:00 -- -- -- -- -- -- -- -- --
2017-11-13 06:00:00 -- -- -- -- -- -- -- -- --
2017-11-13 05:00:00 -- -- -- -- -- -- -- -- --
2017-11-13 04:00:00 -- -- -- -- -- -- -- -- --
2017-11-13 03:00:00 -- -- -- -- -- -- -- -- --
2017-11-13 02:00:00 -- -- -- -- -- -- -- -- --
2017-11-13 01:00:00 -- -- -- -- -- -- -- -- --
2017-11-13 00:00:00 -- -- -- -- -- -- -- -- --
2017-11-12 23:00:00 -- -- -- -- -- -- -- -- --
2017-11-12 22:00:00 -- -- -- -- -- -- -- -- --
2017-11-12 21:00:00 -- -- -- -- -- -- -- -- --
2017-11-12 20:00:00 -- -- -- -- -- -- -- -- --
2017-11-12 19:00:00 -- -- -- -- -- -- -- -- --
2017-11-12 18:00:00 -- -- -- -- -- -- -- -- --
2017-11-12 17:00:00 -- -- -- -- -- -- -- -- --
2017-11-12 16:00:00 -- -- -- -- -- -- -- -- --
2017-11-12 15:00:00 -- -- -- -- -- -- -- -- --
2017-11-12 14:00:00 -- -- -- -- -- -- -- -- --
2017-11-12 13:00:00 -- -- -- -- -- -- -- -- --
2017-11-12 12:00:00 -- -- -- -- -- -- -- -- --
2017-11-12 11:00:00 -- -- -- -- -- -- -- -- --
2017-11-12 10:00:00 -- -- -- -- -- -- -- -- --
2017-11-12 09:00:00 -- -- -- -- -- -- -- -- --
2017-11-12 08:00:00 -- -- -- -- -- -- -- -- --
2017-11-12 07:00:00 -- -- -- -- -- -- -- -- --
2017-11-12 06:00:00 -- -- -- -- -- -- -- -- --
2017-11-12 05:00:00 -- -- -- -- -- -- -- -- --
2017-11-12 04:00:00 -- -- -- -- -- -- -- -- --
2017-11-12 03:00:00 -- -- -- -- -- -- -- -- --
2017-11-12 02:00:00 -- -- -- -- -- -- -- -- --
2017-11-12 01:00:00 -- -- -- -- -- -- -- -- --
2017-11-12 00:00:00 -- -- -- -- -- -- -- -- --
2017-11-11 23:00:00 -- -- -- -- -- -- -- -- --
2017-11-11 22:00:00 -- -- -- -- -- -- -- -- --
2017-11-11 21:00:00 -- -- -- -- -- -- -- -- --
2017-11-11 20:00:00 -- -- -- -- -- -- -- -- --
2017-11-11 19:00:00 -- -- -- -- -- -- -- -- --
2017-11-11 18:00:00 -- -- -- -- -- -- -- -- --
2017-11-11 17:00:00 -- -- -- -- -- -- -- -- --
2017-11-11 16:00:00 -- -- -- -- -- -- -- -- --
2017-11-11 15:00:00 -- -- -- -- -- -- -- -- --
2017-11-11 14:00:00 -- -- -- -- -- -- -- -- --
2017-11-11 13:00:00 -- -- -- -- -- -- -- -- --
2017-11-11 12:00:00 -- -- -- -- -- -- -- -- --
2017-11-11 11:00:00 -- -- -- -- -- -- -- -- --
2017-11-11 10:00:00 -- -- -- -- -- -- -- -- --
2017-11-11 09:00:00 -- -- -- -- -- -- -- -- --
2017-11-11 08:00:00 -- -- -- -- -- -- -- -- --
2017-11-11 07:00:00 -- -- -- -- -- -- -- -- --
2017-11-11 06:00:00 -- -- -- -- -- -- -- -- --
2017-11-11 05:00:00 -- -- -- -- -- -- -- -- --
2017-11-11 04:00:00 -- -- -- -- -- -- -- -- --
2017-11-11 03:00:00 -- -- -- -- -- -- -- -- --
2017-11-11 02:00:00 -- -- -- -- -- -- -- -- --
2017-11-11 01:00:00 -- -- -- -- -- -- -- -- --
2017-11-11 00:00:00 -- -- -- -- -- -- -- -- --
2017-11-10 23:00:00 -- -- -- -- -- -- -- -- --
2017-11-10 22:00:00 -- -- -- -- -- -- -- -- --
2017-11-10 21:00:00 -- -- -- -- -- -- -- -- --
2017-11-10 20:00:00 -- -- -- -- -- -- -- -- --
2017-11-10 19:00:00 -- -- -- -- -- -- -- -- --
2017-11-10 18:00:00 -- -- -- -- -- -- -- -- --
2017-11-10 17:00:00 -- -- -- -- -- -- -- -- --
2017-11-10 16:00:00 -- -- -- -- -- -- -- -- --
2017-11-10 15:00:00 -- -- -- -- -- -- -- -- --
2017-11-10 14:00:00 -- -- -- -- -- -- -- -- --
2017-11-10 13:00:00 -- -- -- -- -- -- -- -- --
2017-11-10 12:00:00 -- -- -- -- -- -- -- -- --
2017-11-10 11:00:00 -- -- -- -- -- -- -- -- --
2017-11-10 10:00:00 -- -- -- -- -- -- -- -- --
2017-11-10 09:00:00 -- -- -- -- -- -- -- -- --
2017-11-10 08:00:00 -- -- -- -- -- -- -- -- --
2017-11-10 07:00:00 -- -- -- -- -- -- -- -- --
2017-11-10 06:00:00 -- -- -- -- -- -- -- -- --
2017-11-10 05:00:00 -- -- -- -- -- -- -- -- --
2017-11-10 04:00:00 -- -- -- -- -- -- -- -- --
2017-11-10 03:00:00 -- -- -- -- -- -- -- -- --
2017-11-10 02:00:00 -- -- -- -- -- -- -- -- --
2017-11-10 01:00:00 -- -- -- -- -- -- -- -- --
2017-11-10 00:00:00 -- -- -- -- -- -- -- -- --
2017-11-09 23:00:00 -- -- -- -- -- -- -- -- --
2017-11-09 22:00:00 -- -- -- -- -- -- -- -- --
2017-11-09 21:00:00 -- -- -- -- -- -- -- -- --
2017-11-09 20:00:00 -- -- -- -- -- -- -- -- --
2017-11-09 19:00:00 -- -- -- -- -- -- -- -- --
2017-11-09 18:00:00 -- -- -- -- -- -- -- -- --
2017-11-09 17:00:00 -- -- -- -- -- -- -- -- --
2017-11-09 16:00:00 -- -- -- -- -- -- -- -- --
2017-11-09 15:00:00 -- -- -- -- -- -- -- -- --
2017-11-09 14:00:00 -- -- -- -- -- -- -- -- --
2017-11-09 13:00:00 -- -- -- -- -- -- -- -- --
2017-11-09 12:00:00 -- -- -- -- -- -- -- -- --
2017-11-09 11:00:00 -- -- -- -- -- -- -- -- --
2017-11-09 10:00:00 -- -- -- -- -- -- -- -- --
2017-11-09 09:00:00 -- -- -- -- -- -- -- -- --
2017-11-09 08:00:00 -- -- -- -- -- -- -- -- --
2017-11-09 07:00:00 -- -- -- -- -- -- -- -- --
2017-11-09 06:00:00 -- -- -- -- -- -- -- -- --
2017-11-09 05:00:00 -- -- -- -- -- -- -- -- --
2017-11-09 04:00:00 -- -- -- -- -- -- -- -- --
2017-11-09 03:00:00 -- -- -- -- -- -- -- -- --
2017-11-09 02:00:00 -- -- -- -- -- -- -- -- --
2017-11-09 01:00:00 -- -- -- -- -- -- -- -- --
2017-11-09 00:00:00 -- -- -- -- -- -- -- -- --
2017-11-08 23:00:00 -- -- -- -- -- -- -- -- --
2017-11-08 22:00:00 -- -- -- -- -- -- -- -- --
2017-11-08 21:00:00 -- -- -- -- -- -- -- -- --
2017-11-08 20:00:00 -- -- -- -- -- -- -- -- --
2017-11-08 19:00:00 -- -- -- -- -- -- -- -- --
2017-11-08 18:00:00 -- -- -- -- -- -- -- -- --
2017-11-08 17:00:00 -- -- -- -- -- -- -- -- --
2017-11-08 16:00:00 -- -- -- -- -- -- -- -- --
2017-11-08 15:00:00 -- -- -- -- -- -- -- -- --
2017-11-08 14:00:00 -- -- -- -- -- -- -- -- --
2017-11-08 13:00:00 -- -- -- -- -- -- -- -- --
2017-11-08 12:00:00 -- -- -- -- -- -- -- -- --
2017-11-08 11:00:00 -- -- -- -- -- -- -- -- --
2017-11-08 10:00:00 -- -- -- -- -- -- -- -- --
2017-11-08 09:00:00 -- -- -- -- -- -- -- -- --
2017-11-08 08:00:00 -- -- -- -- -- -- -- -- --
2017-11-08 07:00:00 -- -- -- -- -- -- -- -- --
2017-11-08 06:00:00 -- -- -- -- -- -- -- -- --
2017-11-08 05:00:00 -- -- -- -- -- -- -- -- --
2017-11-08 04:00:00 -- -- -- -- -- -- -- -- --
2017-11-08 03:00:00 -- -- -- -- -- -- -- -- --
2017-11-08 02:00:00 -- -- -- -- -- -- -- -- --
2017-11-08 01:00:00 -- -- -- -- -- -- -- -- --
2017-11-08 00:00:00 -- -- -- -- -- -- -- -- --
2017-11-07 23:00:00 -- -- -- -- -- -- -- -- --
2017-11-07 22:00:00 -- -- -- -- -- -- -- -- --
2017-11-07 21:00:00 -- -- -- -- -- -- -- -- --
2017-11-07 20:00:00 -- -- -- -- -- -- -- -- --
2017-11-07 19:00:00 -- -- -- -- -- -- -- -- --
2017-11-07 18:00:00 -- -- -- -- -- -- -- -- --
2017-11-07 17:00:00 -- -- -- -- -- -- -- -- --
2017-11-07 16:00:00 -- -- -- -- -- -- -- -- --
2017-11-07 15:00:00 -- -- -- -- -- -- -- -- --
2017-11-07 14:00:00 -- -- -- -- -- -- -- -- --
2017-11-07 13:00:00 -- -- -- -- -- -- -- -- --
2017-11-07 12:00:00 -- -- -- -- -- -- -- -- --
2017-11-07 11:00:00 -- -- -- -- -- -- -- -- --
2017-11-07 10:00:00 -- -- -- -- -- -- -- -- --
2017-11-07 09:00:00 -- -- -- -- -- -- -- -- --
2017-11-07 08:00:00 -- -- -- -- -- -- -- -- --
2017-11-07 07:00:00 -- -- -- -- -- -- -- -- --
2017-11-07 06:00:00 -- -- -- -- -- -- -- -- --
2017-11-07 05:00:00 -- -- -- -- -- -- -- -- --
2017-11-07 04:00:00 -- -- -- -- -- -- -- -- --
2017-11-07 03:00:00 -- -- -- -- -- -- -- -- --
2017-11-07 02:00:00 -- -- -- -- -- -- -- -- --
2017-11-07 01:00:00 -- -- -- -- -- -- -- -- --
2017-11-07 00:00:00 -- -- -- -- -- -- -- -- --
2017-11-06 23:00:00 -- -- -- -- -- -- -- -- --
2017-11-06 22:00:00 -- -- -- -- -- -- -- -- --
2017-11-06 21:00:00 -- -- -- -- -- -- -- -- --
2017-11-06 20:00:00 -- -- -- -- -- -- -- -- --
2017-11-06 19:00:00 -- -- -- -- -- -- -- -- --
2017-11-06 18:00:00 -- -- -- -- -- -- -- -- --
2017-11-06 17:00:00 -- -- -- -- -- -- -- -- --
2017-11-06 16:00:00 -- -- -- -- -- -- -- -- --
2017-11-06 15:00:00 -- -- -- -- -- -- -- -- --
2017-11-06 14:00:00 -- -- -- -- -- -- -- -- --
2017-11-06 13:00:00 -- -- -- -- -- -- -- -- --
2017-11-06 12:00:00 -- -- -- -- -- -- -- -- --
2017-11-06 11:00:00 -- -- -- -- -- -- -- -- --
2017-11-06 10:00:00 -- -- -- -- -- -- -- -- --
2017-11-06 09:00:00 -- -- -- -- -- -- -- -- --
2017-11-06 08:00:00 -- -- -- -- -- -- -- -- --
2017-11-06 07:00:00 -- -- -- -- -- -- -- -- --
2017-11-06 06:00:00 -- -- -- -- -- -- -- -- --
2017-11-06 05:00:00 -- -- -- -- -- -- -- -- --
2017-11-06 04:00:00 -- -- -- -- -- -- -- -- --
2017-11-06 03:00:00 -- -- -- -- -- -- -- -- --
2017-11-06 02:00:00 -- -- -- -- -- -- -- -- --
2017-11-06 01:00:00 -- -- -- -- -- -- -- -- --
2017-11-06 00:00:00 -- -- -- -- -- -- -- -- --
2017-11-05 23:00:00 -- -- -- -- -- -- -- -- --
2017-11-05 22:00:00 -- -- -- -- -- -- -- -- --
2017-11-05 21:00:00 -- -- -- -- -- -- -- -- --
2017-11-05 20:00:00 -- -- -- -- -- -- -- -- --
2017-11-05 19:00:00 -- -- -- -- -- -- -- -- --
2017-11-05 18:00:00 -- -- -- -- -- -- -- -- --
2017-11-05 17:00:00 -- -- -- -- -- -- -- -- --
2017-11-05 16:00:00 -- -- -- -- -- -- -- -- --
2017-11-05 15:00:00 -- -- -- -- -- -- -- -- --
2017-11-05 14:00:00 -- -- -- -- -- -- -- -- --
2017-11-05 13:00:00 -- -- -- -- -- -- -- -- --
2017-11-05 12:00:00 -- -- -- -- -- -- -- -- --
2017-11-05 11:00:00 -- -- -- -- -- -- -- -- --
2017-11-05 10:00:00 -- -- -- -- -- -- -- -- --
2017-11-05 09:00:00 -- -- -- -- -- -- -- -- --
2017-11-05 08:00:00 -- -- -- -- -- -- -- -- --
2017-11-05 07:00:00 -- -- -- -- -- -- -- -- --
2017-11-05 06:00:00 -- -- -- -- -- -- -- -- --
2017-11-05 05:00:00 -- -- -- -- -- -- -- -- --
2017-11-05 04:00:00 -- -- -- -- -- -- -- -- --
2017-11-05 03:00:00 -- -- -- -- -- -- -- -- --
2017-11-05 02:00:00 -- -- -- -- -- -- -- -- --
2017-11-05 01:00:00 -- -- -- -- -- -- -- -- --
2017-11-05 00:00:00 -- -- -- -- -- -- -- -- --
2017-11-04 23:00:00 -- -- -- -- -- -- -- -- --
2017-11-04 22:00:00 -- -- -- -- -- -- -- -- --
2017-11-04 21:00:00 -- -- -- -- -- -- -- -- --
2017-11-04 20:00:00 -- -- -- -- -- -- -- -- --
2017-11-04 19:00:00 -- -- -- -- -- -- -- -- --
2017-11-04 18:00:00 -- -- -- -- -- -- -- -- --
2017-11-04 17:00:00 -- -- -- -- -- -- -- -- --
2017-11-04 16:00:00 -- -- -- -- -- -- -- -- --
2017-11-04 15:00:00 -- -- -- -- -- -- -- -- --
2017-11-04 14:00:00 -- -- -- -- -- -- -- -- --
2017-11-04 13:00:00 -- -- -- -- -- -- -- -- --
2017-11-04 12:00:00 -- -- -- -- -- -- -- -- --
2017-11-04 11:00:00 -- -- -- -- -- -- -- -- --
2017-11-04 10:00:00 -- -- -- -- -- -- -- -- --
2017-11-04 09:00:00 -- -- -- -- -- -- -- -- --
2017-11-04 08:00:00 -- -- -- -- -- -- -- -- --
2017-11-04 07:00:00 -- -- -- -- -- -- -- -- --
2017-11-04 06:00:00 -- -- -- -- -- -- -- -- --
2017-11-04 05:00:00 -- -- -- -- -- -- -- -- --
2017-11-04 04:00:00 -- -- -- -- -- -- -- -- --
2017-11-04 03:00:00 -- -- -- -- -- -- -- -- --
2017-11-04 02:00:00 -- -- -- -- -- -- -- -- --
2017-11-04 01:00:00 -- -- -- -- -- -- -- -- --
2017-11-04 00:00:00 -- -- -- -- -- -- -- -- --
2017-11-03 23:00:00 -- -- -- -- -- -- -- -- --
2017-11-03 22:00:00 -- -- -- -- -- -- -- -- --
2017-11-03 21:00:00 -- -- -- -- -- -- -- -- --
2017-11-03 20:00:00 -- -- -- -- -- -- -- -- --
2017-11-03 19:00:00 -- -- -- -- -- -- -- -- --
2017-11-03 18:00:00 -- -- -- -- -- -- -- -- --
2017-11-03 17:00:00 -- -- -- -- -- -- -- -- --
2017-11-03 16:00:00 -- -- -- -- -- -- -- -- --
2017-11-03 15:00:00 -- -- -- -- -- -- -- -- --
2017-11-03 14:00:00 -- -- -- -- -- -- -- -- --
2017-11-03 13:00:00 -- -- -- -- -- -- -- -- --
2017-11-03 12:00:00 -- -- -- -- -- -- -- -- --
2017-11-03 11:00:00 -- -- -- -- -- -- -- -- --
2017-11-03 10:00:00 -- -- -- -- -- -- -- -- --
2017-11-03 09:00:00 -- -- -- -- -- -- -- -- --
2017-11-03 08:00:00 -- -- -- -- -- -- -- -- --
2017-11-03 07:00:00 -- -- -- -- -- -- -- -- --
2017-11-03 06:00:00 -- -- -- -- -- -- -- -- --
2017-11-03 05:00:00 -- -- -- -- -- -- -- -- --
2017-11-03 04:00:00 -- -- -- -- -- -- -- -- --
2017-11-03 03:00:00 -- -- -- -- -- -- -- -- --
2017-11-03 02:00:00 -- -- -- -- -- -- -- -- --
2017-11-03 01:00:00 -- -- -- -- -- -- -- -- --
2017-11-03 00:00:00 -- -- -- -- -- -- -- -- --
2017-11-02 23:00:00 -- -- -- -- -- -- -- -- --
2017-11-02 22:00:00 -- -- -- -- -- -- -- -- --
2017-11-02 21:00:00 -- -- -- -- -- -- -- -- --
2017-11-02 20:00:00 -- -- -- -- -- -- -- -- --
2017-11-02 19:00:00 -- -- -- -- -- -- -- -- --
2017-11-02 18:00:00 -- -- -- -- -- -- -- -- --
2017-11-02 17:00:00 -- -- -- -- -- -- -- -- --
2017-11-02 16:00:00 -- -- -- -- -- -- -- -- --
2017-11-02 15:00:00 -- -- -- -- -- -- -- -- --
2017-11-02 14:00:00 -- -- -- -- -- -- -- -- --
2017-11-02 13:00:00 -- -- -- -- -- -- -- -- --
2017-11-02 12:00:00 -- -- -- -- -- -- -- -- --
2017-11-02 11:00:00 -- -- -- -- -- -- -- -- --
2017-11-02 10:00:00 -- -- -- -- -- -- -- -- --
2017-11-02 09:00:00 -- -- -- -- -- -- -- -- --
2017-11-02 08:00:00 -- -- -- -- -- -- -- -- --
2017-11-02 07:00:00 -- -- -- -- -- -- -- -- --
2017-11-02 06:00:00 -- -- -- -- -- -- -- -- --
2017-11-02 05:00:00 -- -- -- -- -- -- -- -- --
2017-11-02 04:00:00 -- -- -- -- -- -- -- -- --
2017-11-02 03:00:00 -- -- -- -- -- -- -- -- --
2017-11-02 02:00:00 -- -- -- -- -- -- -- -- --
2017-11-02 01:00:00 -- -- -- -- -- -- -- -- --
2017-11-02 00:00:00 -- -- -- -- -- -- -- -- --
2017-11-01 23:00:00 -- -- -- -- -- -- -- -- --
2017-11-01 22:00:00 -- -- -- -- -- -- -- -- --
2017-11-01 21:00:00 -- -- -- -- -- -- -- -- --
2017-11-01 20:00:00 -- -- -- -- -- -- -- -- --
2017-11-01 19:00:00 -- -- -- -- -- -- -- -- --
2017-11-01 18:00:00 -- -- -- -- -- -- -- -- --
2017-11-01 17:00:00 -- -- -- -- -- -- -- -- --
2017-11-01 16:00:00 -- -- -- -- -- -- -- -- --
2017-11-01 15:00:00 -- -- -- -- -- -- -- -- --
2017-11-01 14:00:00 -- -- -- -- -- -- -- -- --
2017-11-01 13:00:00 -- -- -- -- -- -- -- -- --
2017-11-01 12:00:00 -- -- -- -- -- -- -- -- --
2017-11-01 11:00:00 -- -- -- -- -- -- -- -- --
2017-11-01 10:00:00 -- -- -- -- -- -- -- -- --
2017-11-01 09:00:00 -- -- -- -- -- -- -- -- --
2017-11-01 08:00:00 -- -- -- -- -- -- -- -- --
2017-11-01 07:00:00 -- -- -- -- -- -- -- -- --
2017-11-01 06:00:00 -- -- -- -- -- -- -- -- --
2017-11-01 05:00:00 -- -- -- -- -- -- -- -- --
2017-11-01 04:00:00 -- -- -- -- -- -- -- -- --
2017-11-01 03:00:00 -- -- -- -- -- -- -- -- --
2017-11-01 02:00:00 -- -- -- -- -- -- -- -- --
2017-11-01 01:00:00 -- -- -- -- -- -- -- -- --
2017-11-01 00:00:00 -- -- -- -- -- -- -- -- --
2017-10-31 23:00:00 -- -- -- -- -- -- -- -- --
2017-10-31 22:00:00 -- -- -- -- -- -- -- -- --
2017-10-31 21:00:00 -- -- -- -- -- -- -- -- --
2017-10-31 20:00:00 -- -- -- -- -- -- -- -- --
2017-10-31 19:00:00 -- -- -- -- -- -- -- -- --
2017-10-31 18:00:00 -- -- -- -- -- -- -- -- --
2017-10-31 17:00:00 -- -- -- -- -- -- -- -- --
2017-10-31 16:00:00 -- -- -- -- -- -- -- -- --
2017-10-31 15:00:00 -- -- -- -- -- -- -- -- --
2017-10-31 14:00:00 -- -- -- -- -- -- -- -- --
2017-10-31 13:00:00 -- -- -- -- -- -- -- -- --
2017-10-31 12:00:00 -- -- -- -- -- -- -- -- --
2017-10-31 11:00:00 -- -- -- -- -- -- -- -- --
2017-10-31 10:00:00 -- -- -- -- -- -- -- -- --
2017-10-31 09:00:00 -- -- -- -- -- -- -- -- --
2017-10-31 08:00:00 -- -- -- -- -- -- -- -- --
2017-10-31 07:00:00 -- -- -- -- -- -- -- -- --
2017-10-31 06:00:00 -- -- -- -- -- -- -- -- --
2017-10-31 05:00:00 -- -- -- -- -- -- -- -- --
2017-10-31 04:00:00 -- -- -- -- -- -- -- -- --
2017-10-31 03:00:00 -- -- -- -- -- -- -- -- --
2017-10-31 02:00:00 -- -- -- -- -- -- -- -- --
2017-10-31 01:00:00 -- -- -- -- -- -- -- -- --
2017-10-31 00:00:00 -- -- -- -- -- -- -- -- --
2017-10-30 23:00:00 -- -- -- -- -- -- -- -- --
2017-10-30 22:00:00 -- -- -- -- -- -- -- -- --
2017-10-30 21:00:00 -- -- -- -- -- -- -- -- --
2017-10-30 20:00:00 -- -- -- -- -- -- -- -- --
2017-10-30 19:00:00 -- -- -- -- -- -- -- -- --
2017-10-30 18:00:00 -- -- -- -- -- -- -- -- --
2017-10-30 17:00:00 -- -- -- -- -- -- -- -- --
2017-10-30 16:00:00 -- -- -- -- -- -- -- -- --
2017-10-30 15:00:00 -- -- -- -- -- -- -- -- --
2017-10-30 14:00:00 -- -- -- -- -- -- -- -- --
2017-10-30 13:00:00 -- -- -- -- -- -- -- -- --
2017-10-30 12:00:00 -- -- -- -- -- -- -- -- --
2017-10-30 11:00:00 -- -- -- -- -- -- -- -- --
2017-10-30 10:00:00 -- -- -- -- -- -- -- -- --
2017-10-30 09:00:00 -- -- -- -- -- -- -- -- --
2017-10-30 08:00:00 -- -- -- -- -- -- -- -- --
2017-10-30 07:00:00 -- -- -- -- -- -- -- -- --
2017-10-30 06:00:00 -- -- -- -- -- -- -- -- --
2017-10-30 05:00:00 -- -- -- -- -- -- -- -- --
2017-10-30 04:00:00 -- -- -- -- -- -- -- -- --
2017-10-30 03:00:00 -- -- -- -- -- -- -- -- --
2017-10-30 02:00:00 -- -- -- -- -- -- -- -- --
2017-10-30 01:00:00 -- -- -- -- -- -- -- -- --
2017-10-30 00:00:00 -- -- -- -- -- -- -- -- --
2017-10-29 23:00:00 -- -- -- -- -- -- -- -- --
2017-10-29 22:00:00 -- -- -- -- -- -- -- -- --
2017-10-29 21:00:00 -- -- -- -- -- -- -- -- --
2017-10-29 20:00:00 -- -- -- -- -- -- -- -- --
2017-10-29 19:00:00 -- -- -- -- -- -- -- -- --
2017-10-29 18:00:00 -- -- -- -- -- -- -- -- --
2017-10-29 17:00:00 -- -- -- -- -- -- -- -- --
2017-10-29 16:00:00 -- -- -- -- -- -- -- -- --
2017-10-29 15:00:00 -- -- -- -- -- -- -- -- --
2017-10-29 14:00:00 -- -- -- -- -- -- -- -- --
2017-10-29 13:00:00 -- -- -- -- -- -- -- -- --
2017-10-29 12:00:00 -- -- -- -- -- -- -- -- --
2017-10-29 11:00:00 -- -- -- -- -- -- -- -- --
2017-10-29 10:00:00 -- -- -- -- -- -- -- -- --
2017-10-29 09:00:00 -- -- -- -- -- -- -- -- --
2017-10-29 08:00:00 -- -- -- -- -- -- -- -- --
2017-10-29 07:00:00 -- -- -- -- -- -- -- -- --
2017-10-29 06:00:00 -- -- -- -- -- -- -- -- --
2017-10-29 05:00:00 -- -- -- -- -- -- -- -- --
2017-10-29 04:00:00 -- -- -- -- -- -- -- -- --
2017-10-29 03:00:00 -- -- -- -- -- -- -- -- --
2017-10-29 02:00:00 -- -- -- -- -- -- -- -- --
2017-10-29 01:00:00 -- -- -- -- -- -- -- -- --
2017-10-29 00:00:00 -- -- -- -- -- -- -- -- --
2017-10-28 23:00:00 -- -- -- -- -- -- -- -- --
2017-10-28 22:00:00 -- -- -- -- -- -- -- -- --
2017-10-28 21:00:00 -- -- -- -- -- -- -- -- --
2017-10-28 20:00:00 -- -- -- -- -- -- -- -- --
2017-10-28 19:00:00 -- -- -- -- -- -- -- -- --
2017-10-28 18:00:00 -- -- -- -- -- -- -- -- --
2017-10-28 17:00:00 -- -- -- -- -- -- -- -- --
2017-10-28 16:00:00 -- -- -- -- -- -- -- -- --
2017-10-28 15:00:00 -- -- -- -- -- -- -- -- --
2017-10-28 14:00:00 -- -- -- -- -- -- -- -- --
2017-10-28 13:00:00 -- -- -- -- -- -- -- -- --
2017-10-28 12:00:00 -- -- -- -- -- -- -- -- --
2017-10-28 11:00:00 -- -- -- -- -- -- -- -- --
2017-10-28 10:00:00 -- -- -- -- -- -- -- -- --
2017-10-28 09:00:00 -- -- -- -- -- -- -- -- --
2017-10-28 08:00:00 -- -- -- -- -- -- -- -- --
2017-10-28 07:00:00 -- -- -- -- -- -- -- -- --
2017-10-28 06:00:00 -- -- -- -- -- -- -- -- --
2017-10-28 05:00:00 -- -- -- -- -- -- -- -- --
2017-10-28 04:00:00 -- -- -- -- -- -- -- -- --
2017-10-28 03:00:00 -- -- -- -- -- -- -- -- --
2017-10-28 02:00:00 -- -- -- -- -- -- -- -- --
2017-10-28 01:00:00 -- -- -- -- -- -- -- -- --
2017-10-28 00:00:00 -- -- -- -- -- -- -- -- --
2017-10-27 23:00:00 -- -- -- -- -- -- -- -- --
2017-10-27 22:00:00 -- -- -- -- -- -- -- -- --
2017-10-27 21:00:00 -- -- -- -- -- -- -- -- --
2017-10-27 20:00:00 -- -- -- -- -- -- -- -- --
2017-10-27 19:00:00 -- -- -- -- -- -- -- -- --
2017-10-27 18:00:00 -- -- -- -- -- -- -- -- --
2017-10-27 17:00:00 -- -- -- -- -- -- -- -- --
2017-10-27 16:00:00 -- -- -- -- -- -- -- -- --
2017-10-27 15:00:00 -- -- -- -- -- -- -- -- --
2017-10-27 14:00:00 -- -- -- -- -- -- -- -- --
2017-10-27 13:00:00 -- -- -- -- -- -- -- -- --
2017-10-27 12:00:00 -- -- -- -- -- -- -- -- --
2017-10-27 11:00:00 -- -- -- -- -- -- -- -- --
2017-10-27 10:00:00 -- -- -- -- -- -- -- -- --
2017-10-27 09:00:00 -- -- -- -- -- -- -- -- --
2017-10-27 08:00:00 -- -- -- -- -- -- -- -- --
2017-10-27 07:00:00 -- -- -- -- -- -- -- -- --
2017-10-27 06:00:00 -- -- -- -- -- -- -- -- --
2017-10-27 05:00:00 -- -- -- -- -- -- -- -- --
2017-10-27 04:00:00 -- -- -- -- -- -- -- -- --
2017-10-27 03:00:00 -- -- -- -- -- -- -- -- --
2017-10-27 02:00:00 -- -- -- -- -- -- -- -- --
2017-10-27 01:00:00 -- -- -- -- -- -- -- -- --
2017-10-27 00:00:00 -- -- -- -- -- -- -- -- --
2017-10-26 23:00:00 -- -- -- -- -- -- -- -- --
2017-10-26 22:00:00 -- -- -- -- -- -- -- -- --
2017-10-26 21:00:00 -- -- -- -- -- -- -- -- --
2017-10-26 20:00:00 -- -- -- -- -- -- -- -- --
2017-10-26 19:00:00 -- -- -- -- -- -- -- -- --
2017-10-26 18:00:00 -- -- -- -- -- -- -- -- --
2017-10-26 17:00:00 -- -- -- -- -- -- -- -- --
2017-10-26 16:00:00 -- -- -- -- -- -- -- -- --
2017-10-26 15:00:00 -- -- -- -- -- -- -- -- --
2017-10-26 14:00:00 -- -- -- -- -- -- -- -- --
2017-10-26 13:00:00 -- -- -- -- -- -- -- -- --
2017-10-26 12:00:00 -- -- -- -- -- -- -- -- --
2017-10-26 11:00:00 -- -- -- -- -- -- -- -- --
2017-10-26 10:00:00 -- -- -- -- -- -- -- -- --
2017-10-26 09:00:00 -- -- -- -- -- -- -- -- --
2017-10-26 08:00:00 -- -- -- -- -- -- -- -- --
2017-10-26 07:00:00 -- -- -- -- -- -- -- -- --
2017-10-26 06:00:00 -- -- -- -- -- -- -- -- --
2017-10-26 05:00:00 -- -- -- -- -- -- -- -- --
2017-10-26 04:00:00 -- -- -- -- -- -- -- -- --
2017-10-26 03:00:00 -- -- -- -- -- -- -- -- --
2017-10-26 02:00:00 -- -- -- -- -- -- -- -- --
2017-10-26 01:00:00 -- -- -- -- -- -- -- -- --
2017-10-26 00:00:00 -- -- -- -- -- -- -- -- --
2017-10-25 23:00:00 -- -- -- -- -- -- -- -- --
2017-10-25 22:00:00 -- -- -- -- -- -- -- -- --
2017-10-25 21:00:00 -- -- -- -- -- -- -- -- --
2017-10-25 20:00:00 -- -- -- -- -- -- -- -- --
2017-10-25 19:00:00 -- -- -- -- -- -- -- -- --
2017-10-25 18:00:00 -- -- -- -- -- -- -- -- --
2017-10-25 17:00:00 -- -- -- -- -- -- -- -- --
2017-10-25 16:00:00 -- -- -- -- -- -- -- -- --
2017-10-25 15:00:00 -- -- -- -- -- -- -- -- --
2017-10-25 14:00:00 -- -- -- -- -- -- -- -- --
2017-10-25 13:00:00 -- -- -- -- -- -- -- -- --
2017-10-25 12:00:00 -- -- -- -- -- -- -- -- --
2017-10-25 11:00:00 -- -- -- -- -- -- -- -- --
2017-10-25 10:00:00 -- -- -- -- -- -- -- -- --
2017-10-25 09:00:00 -- -- -- -- -- -- -- -- --
2017-10-25 08:00:00 -- -- -- -- -- -- -- -- --
2017-10-25 07:00:00 -- -- -- -- -- -- -- -- --
2017-10-25 06:00:00 -- -- -- -- -- -- -- -- --
2017-10-25 05:00:00 -- -- -- -- -- -- -- -- --
2017-10-25 04:00:00 -- -- -- -- -- -- -- -- --
2017-10-25 03:00:00 -- -- -- -- -- -- -- -- --
2017-10-25 02:00:00 -- -- -- -- -- -- -- -- --
2017-10-25 01:00:00 -- -- -- -- -- -- -- -- --
2017-10-25 00:00:00 -- -- -- -- -- -- -- -- --